createdAt,value
2017-11-04T00:00:57.882Z,29.25
2017-11-04T00:03:25.724Z,33.58
2017-11-04T00:05:53.454Z,28.05
2017-11-04T00:08:21.953Z,30.33
2017-11-04T00:10:49.677Z,34.58
2017-11-04T00:13:18.239Z,34.05
2017-11-04T00:15:46.113Z,33.30
2017-11-04T00:18:13.845Z,30.73
2017-11-04T00:20:41.554Z,28.98
2017-11-04T00:23:09.269Z,31.27
2017-11-04T00:25:37.039Z,30.80
2017-11-04T00:28:04.831Z,32.65
2017-11-04T00:30:32.696Z,31.52
2017-11-04T00:33:00.568Z,29.40
2017-11-04T00:35:28.330Z,34.00
2017-11-04T00:37:56.055Z,36.20
2017-11-04T00:40:23.782Z,38.80
2017-11-04T00:42:51.506Z,36.38
2017-11-04T00:45:19.244Z,36.22
2017-11-04T00:47:46.965Z,30.33
2017-11-04T00:50:15.635Z,37.05
2017-11-04T00:52:43.502Z,40.25
2017-11-04T00:55:11.370Z,31.30
2017-11-04T00:57:39.237Z,42.42
2017-11-04T01:00:07.105Z,36.20
2017-11-04T01:02:34.818Z,34.47
2017-11-04T01:05:02.542Z,39.75
2017-11-04T01:07:30.273Z,40.30
2017-11-04T01:09:58.167Z,38.08
2017-11-04T01:12:26.034Z,32.55
2017-11-04T01:14:53.902Z,34.40
2017-11-04T01:17:21.769Z,32.85
2017-11-04T01:19:49.507Z,33.53
2017-11-04T01:22:17.402Z,30.58
2017-11-04T01:24:45.268Z,30.62
2017-11-04T01:27:12.990Z,33.95
2017-11-04T01:29:40.738Z,33.05
2017-11-04T01:32:09.260Z,30.17
2017-11-04T01:34:37.144Z,37.92
2017-11-04T01:37:05.013Z,40.12
2017-11-04T01:39:32.755Z,36.88
2017-11-04T01:42:00.514Z,25.02
2017-11-04T01:44:28.254Z,26.65
2017-11-04T01:46:56.755Z,27.52
2017-11-04T01:49:24.515Z,31.45
2017-11-04T01:51:52.246Z,28.67
2017-11-04T01:54:20.232Z,28.85
2017-11-04T01:56:48.738Z,30.65
2017-11-04T01:59:16.479Z,37.63
2017-11-04T02:01:44.993Z,31.30
2017-11-04T02:04:12.883Z,31.25
2017-11-04T02:06:40.852Z,30.50
2017-11-04T02:09:08.726Z,28.30
2017-11-04T02:11:36.588Z,34.90
2017-11-04T02:14:04.456Z,30.10
2017-11-04T02:16:32.322Z,31.85
2017-11-04T02:19:00.063Z,31.52
2017-11-04T02:21:27.847Z,38.88
2017-11-04T02:23:55.577Z,36.08
2017-11-04T02:26:23.305Z,41.37
2017-11-04T02:28:51.047Z,35.42
2017-11-04T02:31:18.800Z,37.90
2017-11-04T02:33:46.526Z,32.38
2017-11-04T02:36:14.266Z,39.28
2017-11-04T02:38:42.026Z,35.03
2017-11-04T02:41:09.753Z,36.83
2017-11-04T02:43:37.478Z,35.50
2017-11-04T02:46:05.956Z,37.65
2017-11-04T02:48:34.597Z,37.38
2017-11-04T02:51:02.468Z,38.30
2017-11-04T02:53:30.332Z,32.67
2017-11-04T02:55:58.056Z,38.83
2017-11-04T02:58:25.769Z,34.95
2017-11-04T03:00:53.526Z,34.70
2017-11-04T03:03:22.004Z,30.90
2017-11-04T03:05:49.873Z,30.15
2017-11-04T03:08:17.740Z,35.95
2017-11-04T03:10:45.609Z,38.08
2017-11-04T03:13:14.191Z,40.70
2017-11-04T03:15:42.059Z,40.15
2017-11-04T03:18:09.805Z,41.53
2017-11-04T03:20:37.585Z,43.60
2017-11-04T03:23:05.457Z,48.78
2017-11-04T03:25:33.426Z,47.97
2017-11-04T03:28:01.165Z,46.83
2017-11-04T03:30:28.935Z,39.40
2017-11-04T03:32:56.822Z,39.25
2017-11-04T03:35:24.694Z,33.85
2017-11-04T03:37:52.558Z,38.55
2017-11-04T03:40:20.292Z,36.08
2017-11-04T03:42:48.015Z,35.95
2017-11-04T03:45:15.741Z,42.90
2017-11-04T03:47:43.463Z,37.05
2017-11-04T03:50:11.223Z,43.75
2017-11-04T03:52:39.726Z,35.25
2017-11-04T03:55:07.451Z,33.17
2017-11-04T04:00:09.059Z,33.28
2017-11-04T04:02:36.780Z,30.58
2017-11-04T04:05:04.540Z,38.67
2017-11-04T04:07:32.266Z,36.80
2017-11-04T04:10:00.012Z,34.28
2017-11-04T04:12:27.733Z,33.83
2017-11-04T04:14:55.460Z,31.40
2017-11-04T04:17:23.187Z,31.35
2017-11-04T04:19:51.832Z,32.17
2017-11-04T04:22:19.702Z,37.67
2017-11-04T04:24:47.570Z,34.17
2017-11-04T04:27:15.436Z,33.38
2017-11-04T04:29:43.165Z,34.85
2017-11-04T04:32:10.902Z,37.42
2017-11-04T04:34:39.392Z,35.53
2017-11-04T04:37:07.925Z,34.08
2017-11-04T04:39:35.725Z,37.80
2017-11-04T04:42:04.261Z,35.05
2017-11-04T04:44:32.024Z,29.45
2017-11-04T04:46:59.800Z,46.17
2017-11-04T04:49:27.566Z,42.22
2017-11-04T04:51:55.294Z,42.67
2017-11-04T04:54:23.026Z,35.63
2017-11-04T04:56:50.762Z,41.00
2017-11-04T04:59:18.503Z,38.92
2017-11-04T05:01:46.395Z,45.60
2017-11-04T05:04:14.162Z,42.20
2017-11-04T05:06:41.880Z,36.42
2017-11-04T05:09:09.654Z,46.13
2017-11-04T05:11:37.375Z,42.45
2017-11-04T05:14:05.113Z,43.78
2017-11-04T05:16:32.839Z,49.13
2017-11-04T05:19:00.563Z,52.22
2017-11-04T05:21:28.278Z,52.53
2017-11-04T05:23:56.002Z,58.42
2017-11-04T05:26:24.510Z,60.00
2017-11-04T05:28:52.295Z,49.75
2017-11-04T05:31:21.833Z,50.42
2017-11-04T05:33:51.065Z,49.38
2017-11-04T05:36:21.572Z,44.25
2017-11-04T05:38:49.338Z,43.47
2017-11-04T05:41:17.357Z,54.80
2017-11-04T05:43:45.260Z,45.63
2017-11-04T05:46:13.128Z,46.40
2017-11-04T05:48:40.860Z,42.67
2017-11-04T05:51:08.605Z,43.28
2017-11-04T05:53:37.097Z,49.67
2017-11-04T05:56:06.951Z,44.83
2017-11-04T05:58:34.820Z,45.03
2017-11-04T06:01:02.687Z,39.03
2017-11-04T06:03:30.551Z,44.50
2017-11-04T06:05:58.374Z,45.17
2017-11-04T06:08:26.123Z,38.88
2017-11-04T06:10:54.627Z,40.75
2017-11-04T06:13:22.352Z,38.70
2017-11-04T06:15:50.197Z,49.80
2017-11-04T06:18:18.065Z,46.97
2017-11-04T06:20:46.035Z,36.75
2017-11-04T06:23:13.903Z,41.67
2017-11-04T06:25:41.770Z,46.03
2017-11-04T06:28:09.637Z,43.72
2017-11-04T06:30:37.504Z,42.83
2017-11-04T06:33:05.370Z,37.38
2017-11-04T06:35:33.239Z,37.47
2017-11-04T06:38:01.106Z,38.40
2017-11-04T06:40:28.972Z,38.80
2017-11-04T06:42:56.840Z,34.75
2017-11-04T06:45:24.707Z,35.17
2017-11-04T06:47:52.576Z,38.20
2017-11-04T06:50:20.442Z,41.25
2017-11-04T06:52:48.412Z,35.97
2017-11-04T06:55:16.281Z,38.83
2017-11-04T06:57:44.150Z,39.05
2017-11-04T07:00:12.013Z,33.35
2017-11-04T07:02:39.881Z,40.85
2017-11-04T07:05:07.749Z,49.75
2017-11-04T07:07:35.620Z,55.72
2017-11-04T07:10:03.587Z,41.17
2017-11-04T07:12:31.455Z,33.92
2017-11-04T07:14:59.332Z,32.65
2017-11-04T07:17:27.188Z,33.60
2017-11-04T07:19:55.055Z,34.45
2017-11-04T07:22:22.922Z,35.25
2017-11-04T07:24:50.789Z,38.00
2017-11-04T07:27:18.658Z,35.88
2017-11-04T07:29:46.524Z,34.97
2017-11-04T07:32:14.393Z,35.47
2017-11-04T07:34:42.259Z,33.47
2017-11-04T07:37:10.126Z,35.40
2017-11-04T07:39:37.998Z,31.75
2017-11-04T07:42:05.866Z,38.10
2017-11-04T07:44:33.729Z,33.78
2017-11-04T07:47:01.501Z,35.17
2017-11-04T07:49:29.363Z,28.75
2017-11-04T07:51:57.228Z,29.27
2017-11-04T07:54:25.099Z,31.40
2017-11-04T07:56:52.964Z,32.83
2017-11-04T07:59:20.831Z,33.75
2017-11-04T08:01:48.697Z,30.35
2017-11-04T08:04:16.564Z,31.02
2017-11-04T08:06:44.575Z,31.10
2017-11-04T08:09:13.323Z,30.65
2017-11-04T08:11:41.190Z,32.10
2017-11-04T08:14:09.262Z,35.42
2017-11-04T08:16:37.129Z,41.95
2017-11-04T08:19:05.100Z,33.20
2017-11-04T08:21:32.982Z,35.40
2017-11-04T08:24:00.834Z,39.65
2017-11-04T08:26:28.701Z,31.62
2017-11-04T08:28:56.671Z,34.47
2017-11-04T08:31:24.538Z,33.50
2017-11-04T08:33:53.226Z,33.88
2017-11-04T08:36:21.095Z,38.22
2017-11-04T08:38:48.962Z,34.60
2017-11-04T08:41:16.826Z,30.67
2017-11-04T08:43:44.694Z,37.42
2017-11-04T08:46:12.561Z,34.13
2017-11-04T08:48:40.429Z,31.77
2017-11-04T08:51:08.297Z,40.05
2017-11-04T08:53:36.096Z,38.35
2017-11-04T08:56:04.748Z,37.33
2017-11-04T08:58:32.616Z,37.50
2017-11-04T09:01:00.482Z,36.15
2017-11-04T09:03:28.349Z,39.28
2017-11-04T09:05:56.217Z,46.10
2017-11-04T09:08:24.084Z,44.60
2017-11-04T09:10:51.951Z,52.22
2017-11-04T09:13:19.818Z,62.40
2017-11-04T09:15:47.900Z,61.25
2017-11-04T09:18:15.759Z,69.55
2017-11-04T09:20:44.445Z,71.12
2017-11-04T09:23:12.311Z,64.53
2017-11-04T09:25:40.178Z,61.53
2017-11-04T09:28:08.046Z,73.30
2017-11-04T09:30:35.914Z,73.87
2017-11-04T09:33:03.783Z,71.53
2017-11-04T09:35:31.648Z,71.35
2017-11-04T09:37:59.517Z,76.50
2017-11-04T09:40:27.384Z,70.93
2017-11-04T09:42:55.250Z,74.47
2017-11-04T09:45:23.119Z,78.28
2017-11-04T09:47:51.026Z,76.65
2017-11-04T09:50:19.672Z,68.50
2017-11-04T09:52:47.538Z,82.15
2017-11-04T09:55:15.408Z,78.93
2017-11-04T09:57:43.273Z,81.85
2017-11-04T10:00:11.141Z,77.18
2017-11-04T10:02:39.009Z,74.30
2017-11-04T10:05:06.876Z,81.22
2017-11-04T10:07:34.742Z,75.97
2017-11-04T10:10:02.610Z,79.37
2017-11-04T10:12:30.478Z,82.90
2017-11-04T10:14:58.352Z,76.95
2017-11-04T10:17:27.031Z,84.37
2017-11-04T10:19:54.899Z,92.37
2017-11-04T10:22:22.766Z,86.32
2017-11-04T10:24:50.633Z,93.10
2017-11-04T10:27:18.500Z,90.35
2017-11-04T10:29:46.287Z,100.25
2017-11-04T10:32:14.162Z,97.37
2017-11-04T10:34:42.820Z,99.60
2017-11-04T10:37:10.686Z,96.87
2017-11-04T10:39:38.553Z,98.07
2017-11-04T10:42:06.523Z,98.43
2017-11-04T10:44:34.390Z,94.62
2017-11-04T10:47:02.258Z,97.60
2017-11-04T10:49:30.126Z,88.28
2017-11-04T10:51:58.094Z,85.60
2017-11-04T10:54:25.968Z,101.05
2017-11-04T10:56:53.834Z,108.97
2017-11-04T10:59:21.699Z,100.32
2017-11-04T11:01:49.698Z,92.40
2017-11-04T11:04:18.358Z,89.50
2017-11-04T11:06:46.225Z,101.72
2017-11-04T11:09:14.092Z,88.70
2017-11-04T11:11:42.263Z,97.05
2017-11-04T11:14:10.130Z,88.97
2017-11-04T11:16:37.996Z,90.87
2017-11-04T11:19:05.865Z,92.15
2017-11-04T11:21:33.731Z,93.32
2017-11-04T11:24:02.316Z,93.43
2017-11-04T11:26:30.186Z,96.87
2017-11-04T11:28:58.051Z,87.53
2017-11-04T11:31:25.917Z,81.37
2017-11-04T11:33:53.785Z,94.03
2017-11-04T11:36:21.653Z,82.18
2017-11-04T11:38:49.521Z,81.30
2017-11-04T11:41:17.386Z,80.93
2017-11-04T11:43:45.254Z,80.95
2017-11-04T11:46:13.123Z,71.43
2017-11-04T11:48:40.988Z,78.28
2017-11-04T11:51:08.856Z,84.85
2017-11-04T11:53:36.724Z,83.18
2017-11-04T11:56:04.591Z,74.57
2017-11-04T11:58:32.478Z,69.03
2017-11-04T12:01:01.043Z,74.57
2017-11-04T12:03:28.909Z,77.03
2017-11-04T12:05:56.776Z,77.50
2017-11-04T12:08:24.644Z,76.07
2017-11-04T12:10:52.512Z,66.95
2017-11-04T12:13:20.378Z,72.03
2017-11-04T12:15:48.247Z,65.07
2017-11-04T12:18:16.113Z,71.87
2017-11-04T12:20:43.980Z,70.25
2017-11-04T12:23:11.847Z,63.67
2017-11-04T12:25:39.715Z,61.50
2017-11-04T12:28:07.583Z,59.78
2017-11-04T12:30:35.450Z,58.58
2017-11-04T12:33:03.318Z,56.28
2017-11-04T12:35:31.184Z,60.03
2017-11-04T12:37:59.052Z,54.92
2017-11-04T12:40:26.919Z,52.55
2017-11-04T12:42:54.786Z,48.42
2017-11-04T12:45:22.654Z,56.40
2017-11-04T12:47:50.521Z,52.15
2017-11-04T12:50:18.400Z,49.83
2017-11-04T12:52:46.248Z,49.92
2017-11-04T12:55:14.123Z,49.63
2017-11-04T12:57:41.991Z,52.28
2017-11-04T13:00:09.857Z,46.90
2017-11-04T13:02:37.725Z,50.80
2017-11-04T13:05:05.592Z,45.05
2017-11-04T13:07:33.461Z,50.92
2017-11-04T13:10:01.327Z,50.42
2017-11-04T13:12:29.194Z,58.83
2017-11-04T13:14:57.061Z,53.25
2017-11-04T13:17:24.929Z,50.35
2017-11-04T13:19:52.796Z,55.63
2017-11-04T13:22:20.664Z,60.22
2017-11-04T13:24:48.530Z,53.97
2017-11-04T13:27:16.398Z,50.75
2017-11-04T13:29:44.264Z,53.72
2017-11-04T13:32:12.133Z,60.38
2017-11-04T13:34:39.999Z,57.45
2017-11-04T13:37:07.867Z,57.00
2017-11-04T13:39:35.735Z,55.70
2017-11-04T13:42:03.605Z,55.85
2017-11-04T13:44:31.469Z,54.47
2017-11-04T13:46:59.336Z,53.15
2017-11-04T13:49:27.211Z,54.95
2017-11-04T13:51:55.077Z,48.05
2017-11-04T13:54:23.040Z,48.38
2017-11-04T13:56:50.930Z,55.28
2017-11-04T13:59:18.775Z,49.55
2017-11-04T14:01:46.642Z,48.28
2017-11-04T14:04:14.509Z,54.05
2017-11-04T14:06:42.276Z,53.90
2017-11-04T14:09:10.142Z,49.15
2017-11-04T14:11:39.699Z,49.92
2017-11-04T14:14:08.550Z,54.95
2017-11-04T14:16:37.331Z,50.10
2017-11-04T14:19:12.600Z,54.92
2017-11-04T14:21:44.892Z,51.17
2017-11-04T14:24:14.234Z,49.70
2017-11-04T14:26:43.677Z,52.13
2017-11-04T14:29:12.538Z,51.15
2017-11-04T14:31:40.817Z,55.38
2017-11-04T14:34:08.784Z,48.50
2017-11-04T14:36:36.650Z,50.78
2017-11-04T14:39:04.519Z,57.03
2017-11-04T14:41:32.288Z,52.85
2017-11-04T14:44:00.151Z,51.85
2017-11-04T14:46:28.019Z,52.83
2017-11-04T14:48:55.885Z,51.33
2017-11-04T14:51:23.752Z,46.75
2017-11-04T14:53:51.619Z,46.95
2017-11-04T14:56:19.488Z,43.15
2017-11-04T14:58:47.354Z,49.05
2017-11-04T15:01:15.222Z,42.00
2017-11-04T15:03:43.089Z,43.13
2017-11-04T15:06:10.956Z,37.05
2017-11-04T15:08:38.830Z,37.08
2017-11-04T15:11:06.696Z,38.85
2017-11-04T15:13:35.377Z,38.53
2017-11-04T15:16:03.245Z,39.90
2017-11-04T15:18:31.112Z,37.88
2017-11-04T15:20:58.980Z,34.65
2017-11-04T15:23:26.846Z,45.03
2017-11-04T15:25:54.714Z,38.22
2017-11-04T15:28:22.581Z,38.78
2017-11-04T15:30:50.348Z,36.22
2017-11-04T15:33:18.213Z,41.50
2017-11-04T15:35:46.081Z,42.33
2017-11-04T15:38:13.948Z,35.80
2017-11-04T15:40:41.819Z,36.05
2017-11-04T15:43:09.683Z,37.80
2017-11-04T15:45:37.549Z,40.17
2017-11-04T15:48:05.417Z,39.17
2017-11-04T15:50:33.284Z,34.30
2017-11-04T15:53:01.152Z,27.95
2017-11-04T15:55:29.020Z,29.37
2017-11-04T15:57:56.886Z,28.85
2017-11-04T16:00:24.754Z,31.58
2017-11-04T16:02:52.716Z,26.95
2017-11-04T16:05:25.035Z,29.95
2017-11-04T16:07:58.391Z,28.45
2017-11-04T16:10:29.695Z,33.13
2017-11-04T16:13:02.973Z,31.92
2017-11-04T16:15:32.014Z,38.78
2017-11-04T16:18:00.408Z,38.50
2017-11-04T16:20:33.747Z,42.78
2017-11-04T16:23:06.979Z,38.83
2017-11-04T16:25:41.498Z,45.70
2017-11-04T16:28:15.789Z,38.08
2017-11-04T16:30:43.706Z,43.17
2017-11-04T16:33:11.572Z,39.13
2017-11-04T16:35:39.311Z,47.28
2017-11-04T16:38:07.063Z,48.80
2017-11-04T16:40:35.078Z,46.70
2017-11-04T16:43:02.808Z,41.97
2017-11-04T16:45:30.534Z,35.75
2017-11-04T16:47:59.186Z,42.80
2017-11-04T16:50:27.053Z,36.13
2017-11-04T16:52:54.921Z,35.67
2017-11-04T16:55:23.471Z,35.00
2017-11-04T16:57:51.199Z,33.85
2017-11-04T17:00:19.715Z,34.42
2017-11-04T17:02:47.438Z,39.47
2017-11-04T17:05:15.176Z,35.22
2017-11-04T17:07:47.017Z,51.47
2017-11-04T17:10:15.829Z,49.70
2017-11-04T17:12:43.697Z,51.65
2017-11-04T17:15:11.564Z,44.88
2017-11-04T17:17:40.526Z,41.88
2017-11-04T17:20:08.426Z,43.80
2017-11-04T17:22:36.600Z,45.05
2017-11-04T17:25:04.467Z,36.85
2017-11-04T17:27:32.336Z,44.83
2017-11-04T17:30:00.203Z,45.30
2017-11-04T17:32:28.075Z,42.47
2017-11-04T17:34:55.940Z,43.92
2017-11-04T17:37:23.805Z,44.28
2017-11-04T17:39:51.674Z,44.17
2017-11-04T17:42:19.543Z,39.42
2017-11-04T17:44:47.270Z,47.15
2017-11-04T17:47:15.006Z,40.17
2017-11-04T17:49:43.515Z,39.50
2017-11-04T17:52:11.246Z,50.67
2017-11-04T17:54:39.900Z,46.80
2017-11-04T17:57:07.766Z,49.30
2017-11-04T17:59:35.633Z,58.53
2017-11-04T18:02:03.500Z,61.00
2017-11-04T18:04:31.368Z,52.62
2017-11-04T18:06:59.338Z,48.10
2017-11-04T18:09:27.205Z,51.45
2017-11-04T18:11:55.072Z,56.50
2017-11-04T18:14:22.940Z,46.65
2017-11-04T18:16:50.808Z,44.97
2017-11-04T18:19:18.675Z,45.03
2017-11-04T18:21:46.541Z,42.78
2017-11-04T18:24:14.424Z,38.80
2017-11-04T18:26:42.276Z,48.55
2017-11-04T18:29:10.776Z,55.12
2017-11-04T18:31:38.559Z,64.78
2017-11-04T18:34:07.050Z,61.20
2017-11-04T18:36:35.563Z,58.90
2017-11-04T18:39:03.611Z,58.72
2017-11-04T18:41:31.346Z,56.05
2017-11-04T18:43:59.100Z,56.83
2017-11-04T18:46:26.957Z,52.67
2017-11-04T18:48:54.823Z,61.40
2017-11-04T18:51:22.588Z,51.17
2017-11-04T18:53:50.456Z,75.57
2017-11-04T18:56:18.322Z,70.43
2017-11-04T18:58:46.189Z,69.93
2017-11-04T19:01:14.057Z,71.72
2017-11-04T19:03:41.783Z,62.38
2017-11-04T19:06:09.526Z,60.90
2017-11-04T19:08:38.170Z,57.85
2017-11-04T19:11:06.038Z,51.35
2017-11-04T19:13:33.819Z,54.72
2017-11-04T19:16:01.572Z,47.33
2017-11-04T19:18:29.299Z,41.08
2017-11-04T19:20:57.022Z,44.17
2017-11-04T19:23:24.751Z,47.10
2017-11-04T19:25:52.740Z,49.53
2017-11-04T19:28:20.478Z,63.42
2017-11-04T19:30:48.246Z,68.90
2017-11-04T19:33:15.966Z,63.35
2017-11-04T19:35:44.460Z,62.38
2017-11-04T19:38:12.271Z,49.13
2017-11-04T19:40:40.145Z,48.45
2017-11-04T19:43:07.870Z,44.20
2017-11-04T19:45:35.593Z,45.67
2017-11-04T19:48:04.092Z,43.17
2017-11-04T19:50:32.596Z,44.92
2017-11-04T19:53:00.335Z,52.15
2017-11-04T19:55:28.818Z,41.95
2017-11-04T19:57:57.462Z,44.08
2017-11-04T20:00:25.199Z,43.58
2017-11-04T20:02:53.096Z,53.08
2017-11-04T20:05:20.962Z,47.20
2017-11-04T20:07:48.829Z,41.35
2017-11-04T20:10:16.696Z,50.67
2017-11-04T20:12:44.564Z,51.47
2017-11-04T20:15:12.431Z,54.20
2017-11-04T20:17:40.300Z,57.65
2017-11-04T20:20:08.165Z,59.53
2017-11-04T20:22:36.034Z,62.58
2017-11-04T20:25:03.901Z,52.72
2017-11-04T20:27:31.769Z,61.92
2017-11-04T20:29:59.635Z,54.47
2017-11-04T20:32:27.507Z,58.15
2017-11-04T20:34:55.231Z,50.05
2017-11-04T20:37:22.949Z,45.78
2017-11-04T20:39:50.797Z,51.45
2017-11-04T20:42:18.664Z,49.70
2017-11-04T20:44:46.433Z,50.08
2017-11-04T20:47:14.294Z,43.72
2017-11-04T20:49:42.165Z,42.55
2017-11-04T20:52:10.031Z,39.80
2017-11-04T20:54:37.907Z,42.55
2017-11-04T20:57:06.413Z,53.45
2017-11-04T20:59:34.907Z,47.75
2017-11-04T21:02:03.392Z,40.63
2017-11-04T21:04:31.118Z,39.40
2017-11-04T21:06:58.834Z,37.92
2017-11-04T21:09:26.562Z,36.85
2017-11-04T21:11:54.407Z,40.28
2017-11-04T21:14:23.090Z,40.05
2017-11-04T21:16:50.958Z,35.15
2017-11-04T21:19:18.710Z,40.65
2017-11-04T21:21:46.589Z,41.25
2017-11-04T21:24:14.458Z,45.35
2017-11-04T21:26:42.324Z,49.05
2017-11-04T21:29:10.192Z,44.17
2017-11-04T21:31:38.058Z,42.53
2017-11-04T21:34:05.927Z,42.50
2017-11-04T21:36:33.723Z,51.58
2017-11-04T21:39:02.388Z,38.20
2017-11-04T21:41:30.249Z,44.13
2017-11-04T21:43:58.114Z,41.60
2017-11-04T21:46:25.981Z,51.05
2017-11-04T21:48:53.865Z,55.78
2017-11-04T21:51:21.596Z,52.90
2017-11-04T21:53:49.326Z,44.67
2017-11-04T21:56:17.961Z,44.10
2017-11-04T21:58:45.827Z,62.20
2017-11-04T22:01:13.695Z,62.90
2017-11-04T22:03:41.564Z,46.00
2017-11-04T22:06:09.432Z,41.25
2017-11-04T22:08:37.316Z,40.80
2017-11-04T22:11:05.164Z,38.78
2017-11-04T22:13:33.032Z,34.45
2017-11-04T22:16:00.899Z,39.58
2017-11-04T22:18:28.618Z,37.47
2017-11-04T22:20:56.327Z,38.42
2017-11-04T22:23:24.194Z,44.40
2017-11-04T22:25:52.061Z,38.95
2017-11-04T22:28:19.929Z,38.83
2017-11-04T22:30:47.796Z,43.75
2017-11-04T22:33:15.664Z,43.83
2017-11-04T22:35:43.530Z,38.13
2017-11-04T22:38:11.397Z,33.70
2017-11-04T22:40:39.199Z,39.08
2017-11-04T22:43:07.850Z,38.67
2017-11-04T22:45:35.716Z,37.05
2017-11-04T22:48:03.586Z,40.25
2017-11-04T22:50:31.455Z,32.25
2017-11-04T22:52:59.319Z,36.85
2017-11-04T22:55:27.186Z,45.20
2017-11-04T22:57:55.055Z,48.30
2017-11-04T23:00:22.920Z,64.05
2017-11-04T23:02:50.787Z,53.30
2017-11-04T23:05:18.593Z,39.15
2017-11-04T23:07:47.082Z,40.10
2017-11-04T23:10:15.578Z,37.88
2017-11-04T23:12:43.382Z,42.35
2017-11-04T23:15:12.852Z,36.25
2017-11-04T23:17:40.584Z,34.47
2017-11-04T23:20:09.238Z,37.42
2017-11-04T23:22:36.976Z,35.47
2017-11-04T23:25:04.789Z,38.47
2017-11-04T23:27:32.518Z,40.50
2017-11-04T23:30:00.250Z,39.72
2017-11-04T23:32:27.967Z,51.33
2017-11-04T23:34:55.694Z,40.35
2017-11-04T23:37:23.593Z,38.25
2017-11-04T23:39:51.460Z,31.65
2017-11-04T23:42:19.326Z,29.87
2017-11-04T23:44:47.195Z,28.05
2017-11-04T23:47:15.062Z,29.73
2017-11-04T23:49:42.931Z,34.40
2017-11-04T23:52:10.666Z,30.52
2017-11-04T23:54:38.461Z,34.88
2017-11-04T23:57:06.325Z,29.98
2017-11-04T23:59:34.196Z,29.20
